Time;durP1;ratioP1;P1;durP2;ratioP2;P2;SDS_P1;SDS_P2;PMS_P1;PMS_P2;Temp;Humidity;BMP_temperature;BMP_pressure;BME280_temperature;BME280_humidity;BME280_pressure;Samples;Min_cycle;Max_cycle;Signal;HPM_P1;HPM_P2
2023/08/30 00:01:57;;;;;;;13.00;11.20;;;;;;;18.88;100.00;93912.00;5058642;28;20044;-92
2023/08/30 00:04:23;;;;;;;11.88;10.73;;;;;;;18.83;100.00;93909.34;5064642;28;20047;-95
2023/08/30 00:06:48;;;;;;;12.45;11.10;;;;;;;18.74;100.00;93910.03;5046426;28;20481;-91
2023/08/30 00:09:14;;;;;;;12.85;11.65;;;;;;;18.71;100.00;93915.75;5062207;28;20028;-96
2023/08/30 00:11:39;;;;;;;13.15;11.73;;;;;;;18.73;100.00;93924.97;5052822;28;20104;-96
2023/08/30 00:14:06;;;;;;;14.07;11.60;;;;;;;18.68;100.00;93929.38;5055520;28;20508;-95
2023/08/30 00:16:32;;;;;;;12.30;11.13;;;;;;;18.72;100.00;93925.22;5052290;28;20029;-93
2023/08/30 00:18:58;;;;;;;12.90;11.80;;;;;;;18.83;100.00;93914.59;5044307;28;20478;-93
2023/08/30 00:21:24;;;;;;;18.63;11.50;;;;;;;18.86;100.00;93905.41;5039133;28;20017;-94
2023/08/30 00:23:50;;;;;;;13.35;12.18;;;;;;;18.90;100.00;93901.25;5042623;28;20055;-93
2023/08/30 00:26:15;;;;;;;16.42;12.80;;;;;;;18.76;100.00;93902.69;5059960;28;20755;-96
2023/08/30 00:28:42;;;;;;;18.85;12.48;;;;;;;18.76;100.00;93898.22;5045576;28;20033;-96
2023/08/30 00:31:07;;;;;;;12.90;11.32;;;;;;;18.68;100.00;93901.31;5064166;28;20033;-93
2023/08/30 00:33:32;;;;;;;14.45;12.27;;;;;;;18.76;100.00;93897.44;5056139;28;20028;-95
2023/08/30 00:35:59;;;;;;;15.43;12.75;;;;;;;18.75;100.00;93893.25;5063470;28;20028;-94
2023/08/30 00:38:26;;;;;;;18.48;14.25;;;;;;;18.72;100.00;93891.13;5062195;28;20071;-92
2023/08/30 00:40:52;;;;;;;17.67;13.27;;;;;;;18.68;100.00;93895.25;5051018;28;20212;-92
2023/08/30 00:43:18;;;;;;;22.63;14.73;;;;;;;18.74;100.00;93899.53;5042592;28;20064;-94
2023/08/30 00:45:43;;;;;;;20.42;14.95;;;;;;;18.74;100.00;93899.53;5056681;28;20028;-93
2023/08/30 00:48:09;;;;;;;14.10;12.55;;;;;;;18.79;100.00;93907.44;5056695;28;20063;-95
2023/08/30 00:50:35;;;;;;;17.98;12.85;;;;;;;18.75;100.00;93916.84;5058540;28;20021;-94
2023/08/30 00:53:05;;;;;;;14.65;12.63;;;;;;;18.74;100.00;93923.13;5039258;28;20725;-93
2023/08/30 00:55:31;;;;;;;17.02;12.32;;;;;;;18.80;100.00;93925.56;5060279;28;20029;-96
2023/08/30 00:57:56;;;;;;;16.88;14.60;;;;;;;18.60;100.00;93935.84;5053731;28;20167;-92
2023/08/30 01:00:22;;;;;;;23.23;14.77;;;;;;;18.51;100.00;93944.38;5033041;28;20136;-92
2023/08/30 01:02:47;;;;;;;14.80;13.43;;;;;;;18.46;100.00;93947.72;5050697;28;20517;-95
2023/08/30 01:05:13;;;;;;;18.35;15.77;;;;;;;18.33;100.00;93946.22;5060207;28;20048;-94
2023/08/30 01:07:38;;;;;;;19.02;14.32;;;;;;;18.29;100.00;93955.63;5056162;28;20052;-92
2023/08/30 01:10:04;;;;;;;18.73;13.55;;;;;;;18.37;100.00;93944.69;5074718;28;20883;-93
2023/08/30 01:12:37;;;;;;;15.10;13.48;;;;;;;18.34;100.00;93942.56;5038935;28;20040;-91
2023/08/30 01:15:12;;;;;;;23.13;15.85;;;;;;;18.20;100.00;93959.72;5035394;28;20048;-94
2023/08/30 01:17:40;;;;;;;21.25;13.90;;;;;;;18.09;100.00;93971.06;5058127;28;20036;-96
2023/08/30 01:20:17;;;;;;;15.50;13.82;;;;;;;18.17;100.00;93972.50;5055624;28;20528;-95
2023/08/30 01:23:05;;;;;;;14.50;13.15;;;;;;;18.28;100.00;93975.00;5042684;28;20021;-91
2023/08/30 01:25:53;;;;;;;25.33;14.30;;;;;;;18.23;100.00;93979.41;5061110;28;20055;-93
2023/08/30 01:28:22;;;;;;;21.17;15.15;;;;;;;18.17;100.00;93986.38;5050585;28;20036;-93
2023/08/30 01:30:48;;;;;;;14.98;13.50;;;;;;;18.05;100.00;93990.91;5059481;28;20063;-95
2023/08/30 01:33:18;;;;;;;14.65;13.25;;;;;;;18.12;100.00;93973.22;5063024;28;20498;-94
2023/08/30 01:35:44;;;;;;;16.55;13.88;;;;;;;18.01;100.00;93974.13;5059890;28;20562;-95
2023/08/30 01:38:10;;;;;;;14.88;13.40;;;;;;;17.66;100.00;93997.91;5044393;28;20059;-95
2023/08/30 01:40:39;;;;;;;15.10;13.52;;;;;;;17.78;100.00;94037.97;5047169;28;20052;-96
2023/08/30 01:43:07;;;;;;;15.18;13.68;;;;;;;17.82;100.00;94033.00;5055583;28;20123;-96
2023/08/30 01:45:35;;;;;;;15.63;14.13;;;;;;;17.99;100.00;94027.78;5047374;28;20040;-96
2023/08/30 01:48:00;;;;;;;15.40;13.77;;;;;;;18.07;100.00;94016.91;5057601;28;20020;-96
2023/08/30 01:50:26;;;;;;;14.40;12.93;;;;;;;18.08;100.00;94014.03;5041373;28;20036;-96
2023/08/30 01:52:52;;;;;;;18.33;13.77;;;;;;;17.81;100.00;94018.34;5042086;28;20033;-95
2023/08/30 01:55:18;;;;;;;15.50;14.02;;;;;;;17.81;100.00;94008.66;5054989;28;20033;-96
2023/08/30 01:57:43;;;;;;;18.35;14.13;;;;;;;17.68;100.00;94014.22;5065591;28;20040;-96
2023/08/30 02:00:09;;;;;;;14.13;12.73;;;;;;;17.68;100.00;94016.03;5054492;28;20740;-96
2023/08/30 02:02:34;;;;;;;14.15;12.85;;;;;;;17.97;100.00;94014.94;5059839;28;20044;-95
2023/08/30 02:05:00;;;;;;;15.50;13.98;;;;;;;17.91;100.00;94008.03;5063908;28;20090;-95
2023/08/30 02:07:33;;;;;;;14.23;13.00;;;;;;;17.96;100.00;93995.00;5048237;28;20025;-94
2023/08/30 02:10:02;;;;;;;20.23;13.93;;;;;;;17.98;100.00;94000.78;5057244;28;20039;-93
2023/08/30 02:12:36;;;;;;;15.52;13.88;;;;;;;17.67;100.00;94004.75;5058758;28;20034;-94
2023/08/30 02:15:03;;;;;;;19.55;15.45;;;;;;;17.50;100.00;94024.09;5065342;28;20128;-95
2023/08/30 02:17:29;;;;;;;17.40;14.77;;;;;;;17.43;100.00;94028.66;5045412;28;20094;-94
2023/08/30 02:19:55;;;;;;;14.65;13.38;;;;;;;17.46;100.00;94033.44;5047021;28;20028;-94
2023/08/30 02:22:20;;;;;;;14.38;13.02;;;;;;;17.55;100.00;94021.53;5057436;28;20465;-90
2023/08/30 02:24:45;;;;;;;14.65;13.25;;;;;;;17.60;100.00;94017.19;5061678;28;20032;-92
2023/08/30 02:27:11;;;;;;;15.23;13.80;;;;;;;17.39;100.00;94017.88;5058492;28;20067;-90
2023/08/30 02:29:36;;;;;;;15.75;14.35;;;;;;;17.20;100.00;94035.59;5057819;28;20029;-96
2023/08/30 02:32:02;;;;;;;14.60;13.10;;;;;;;17.29;100.00;94041.25;5061947;28;20130;-95
2023/08/30 02:34:27;;;;;;;17.10;14.55;;;;;;;17.23;100.00;94035.13;5064492;28;20032;-96
2023/08/30 02:36:52;;;;;;;21.17;17.35;;;;;;;17.05;100.00;94037.13;5040238;28;20035;-92
2023/08/30 02:39:19;;;;;;;16.17;14.65;;;;;;;17.00;100.00;94061.38;5065717;28;20028;-95
2023/08/30 02:41:44;;;;;;;16.83;15.15;;;;;;;16.99;100.00;94058.97;5064106;28;20104;-96
2023/08/30 02:44:11;;;;;;;16.70;15.00;;;;;;;17.04;100.00;94057.28;5070310;28;20038;-96
2023/08/30 02:46:37;;;;;;;22.33;16.85;;;;;;;17.03;100.00;94052.25;5072821;28;20243;-95
2023/08/30 02:49:03;;;;;;;14.98;13.73;;;;;;;17.19;100.00;94049.69;5053286;28;20034;-95
2023/08/30 02:51:28;;;;;;;22.02;15.75;;;;;;;17.09;100.00;94041.66;5063320;28;20008;-96
2023/08/30 02:53:54;;;;;;;22.15;16.85;;;;;;;16.96;100.00;94044.53;5071314;28;20024;-94
2023/08/30 02:56:19;;;;;;;16.45;14.85;;;;;;;16.95;100.00;94052.63;5053273;28;20033;-96
2023/08/30 02:58:45;;;;;;;17.85;15.40;;;;;;;16.85;100.00;94064.50;5084481;28;20031;-96
2023/08/30 03:01:10;;;;;;;28.48;16.65;;;;;;;16.78;100.00;94063.81;5062700;28;20032;-93
2023/08/30 03:03:36;;;;;;;18.40;14.85;;;;;;;16.78;100.00;94068.25;5049700;28;20021;-94
2023/08/30 03:06:02;;;;;;;16.85;15.27;;;;;;;16.78;100.00;94063.81;5050079;28;20021;-95
2023/08/30 03:08:28;;;;;;;17.13;15.05;;;;;;;16.88;100.00;94051.97;5063816;28;20039;-96
2023/08/30 03:10:53;;;;;;;19.15;16.63;;;;;;;16.66;100.00;94070.09;5061378;28;20483;-96
2023/08/30 03:13:19;;;;;;;21.38;16.25;;;;;;;16.66;100.00;94070.88;5056173;28;20035;-95
2023/08/30 03:15:44;;;;;;;22.40;15.90;;;;;;;16.56;100.00;94077.72;5055523;28;20036;-96
2023/08/30 03:18:10;;;;;;;19.85;16.77;;;;;;;16.49;100.00;94090.06;5058073;28;20033;-96
2023/08/30 03:20:35;;;;;;;22.88;17.70;;;;;;;16.40;100.00;94097.47;5051530;28;20032;-96
2023/08/30 03:23:00;;;;;;;33.45;18.73;;;;;;;16.38;100.00;94098.69;5043277;28;20028;-95
2023/08/30 03:25:29;;;;;;;25.83;18.30;;;;;;;16.65;100.00;94086.81;5049334;28;20028;-96
2023/08/30 03:27:54;;;;;;;16.48;14.90;;;;;;;16.70;100.00;94064.16;5046373;28;20036;-95
2023/08/30 03:30:20;;;;;;;19.27;16.00;;;;;;;16.77;100.00;94064.84;5046888;28;20029;-94
2023/08/30 03:32:45;;;;;;;22.70;17.20;;;;;;;16.54;100.00;94054.38;5045811;28;20051;-91
2023/08/30 03:35:11;;;;;;;42.65;22.83;;;;;;;16.51;100.00;94064.50;5057550;28;20021;-91
2023/08/30 03:37:36;;;;;;;25.02;17.70;;;;;;;16.62;100.00;94061.13;5064984;28;20109;-94
2023/08/30 03:40:02;;;;;;;18.45;15.57;;;;;;;16.56;100.00;94064.66;5067510;28;20033;-93
2023/08/30 03:42:27;;;;;;;19.50;15.48;;;;;;;16.50;100.00;94062.91;5048140;28;20032;-93
2023/08/30 03:44:53;;;;;;;41.67;22.27;;;;;;;16.45;100.00;94055.75;5053372;28;20043;-92
2023/08/30 03:47:18;;;;;;;46.50;21.38;;;;;;;16.46;100.00;94059.16;5075019;28;20024;-96
2023/08/30 03:49:44;;;;;;;30.50;19.80;;;;;;;16.38;100.00;94044.63;5078593;28;20040;-96
2023/08/30 03:52:09;;;;;;;29.50;18.52;;;;;;;16.35;100.00;94068.59;5053373;28;20097;-93
2023/08/30 03:54:35;;;;;;;26.30;17.45;;;;;;;16.36;100.00;94064.97;5048542;28;20032;-93
2023/08/30 03:57:00;;;;;;;19.70;17.67;;;;;;;16.43;100.00;94051.78;5066798;28;20028;-96
2023/08/30 03:59:27;;;;;;;21.40;15.90;;;;;;;16.41;100.00;94057.22;5064387;28;20124;-94
2023/08/30 04:01:53;;;;;;;68.88;27.25;;;;;;;16.35;100.00;94048.47;5066783;28;20040;-92
2023/08/30 04:04:18;;;;;;;41.58;21.65;;;;;;;16.49;100.00;94056.09;5052232;28;20028;-93
2023/08/30 04:06:44;;;;;;;14.38;12.98;;;;;;;16.33;100.00;94042.69;5046911;28;20834;-94
2023/08/30 04:09:10;;;;;;;18.20;14.23;;;;;;;16.32;100.00;94043.72;5064644;28;20028;-90
2023/08/30 04:11:35;;;;;;;27.25;17.05;;;;;;;16.34;100.00;94044.28;5047626;28;20215;-92
2023/08/30 04:14:01;;;;;;;23.98;15.25;;;;;;;16.33;100.00;94054.97;5065402;28;20035;-94
2023/08/30 04:16:26;;;;;;;20.73;15.43;;;;;;;16.58;100.00;94055.53;5066078;28;20027;-91
2023/08/30 04:18:51;;;;;;;16.77;14.68;;;;;;;16.77;100.00;94035.28;5065431;28;20477;-92
2023/08/30 04:21:17;;;;;;;22.95;16.80;;;;;;;16.61;100.00;94039.41;5047194;28;20028;-94
2023/08/30 04:23:42;;;;;;;25.35;16.80;;;;;;;16.63;100.00;94045.19;5065622;28;20020;-94
2023/08/30 04:26:07;;;;;;;15.98;14.13;;;;;;;16.82;100.00;94025.69;5047477;28;20024;-93
2023/08/30 04:28:33;;;;;;;14.10;12.68;;;;;;;17.09;100.00;94015.50;5064598;28;20094;-95
2023/08/30 04:30:58;;;;;;;16.42;13.55;;;;;;;17.02;100.00;94017.44;5056470;28;20017;-91
2023/08/30 04:33:25;;;;;;;14.85;13.35;;;;;;;17.10;100.00;94032.78;5044129;28;20051;-89
2023/08/30 04:35:54;;;;;;;13.70;12.57;;;;;;;17.57;100.00;94020.28;5064021;28;20101;-92
2023/08/30 04:38:20;;;;;;;13.38;12.13;;;;;;;18.46;100.00;93957.41;5063639;28;20048;-90
2023/08/30 04:40:46;;;;;;;12.98;11.57;;;;;;;18.92;100.00;93944.59;5058943;28;20037;-90
2023/08/30 04:43:11;;;;;;;15.10;10.40;;;;;;;19.12;100.00;93938.75;5041198;28;20185;-87
2023/08/30 04:45:37;;;;;;;11.60;10.05;;;;;;;19.94;100.00;93923.41;5043449;28;20126;-91
2023/08/30 04:48:02;;;;;;;13.38;10.38;;;;;;;20.70;100.00;93908.03;5047570;28;20154;-91
2023/08/30 04:50:28;;;;;;;13.80;9.13;;;;;;;20.87;100.00;93905.94;5047942;28;20033;-92
2023/08/30 04:52:53;;;;;;;11.65;9.02;;;;;;;21.35;100.00;93911.88;5050797;28;20036;-89
2023/08/30 04:55:19;;;;;;;12.02;9.18;;;;;;;21.95;100.00;93911.06;5057848;28;20037;-89
2023/08/30 04:57:44;;;;;;;14.20;9.15;;;;;;;22.23;100.00;93909.69;5061777;28;20460;-90
2023/08/30 05:00:12;;;;;;;22.15;9.25;;;;;;;22.39;100.00;93904.09;5057062;28;20119;-89
2023/08/30 05:02:37;;;;;;;18.05;9.93;;;;;;;22.35;100.00;93908.31;5058065;28;20068;-88
2023/08/30 05:05:03;;;;;;;16.33;8.73;;;;;;;23.32;100.00;93913.94;5045844;28;20025;-85
2023/08/30 05:07:29;;;;;;;9.88;8.23;;;;;;;23.82;100.00;93910.94;5063172;28;20536;-86
2023/08/30 05:09:54;;;;;;;9.45;8.55;;;;;;;24.27;100.00;93912.41;5061521;28;20348;-85
2023/08/30 05:12:20;;;;;;;10.00;7.07;;;;;;;23.99;100.00;93910.50;5066696;28;20051;-92
2023/08/30 05:14:45;;;;;;;8.43;7.55;;;;;;;24.55;100.00;93903.59;5051840;28;20033;-91
2023/08/30 05:17:11;;;;;;;8.23;7.50;;;;;;;24.78;100.00;93909.16;5056771;28;20033;-91
2023/08/30 05:19:36;;;;;;;10.18;7.72;;;;;;;24.57;100.00;93914.69;5057886;28;20498;-90
2023/08/30 05:22:01;;;;;;;10.75;9.30;;;;;;;24.79;100.00;93913.38;5062386;28;20464;-91
2023/08/30 05:24:28;;;;;;;9.15;8.02;;;;;;;25.26;100.00;93926.56;5046188;28;20032;-91
2023/08/30 05:26:53;;;;;;;10.00;9.10;;;;;;;25.73;100.00;93928.25;5062517;28;20029;-90
2023/08/30 05:29:19;;;;;;;10.63;8.68;;;;;;;25.82;100.00;93939.78;5041813;28;20116;-87
2023/08/30 05:31:45;;;;;;;25.63;9.48;;;;;;;25.37;100.00;93933.28;5041779;28;20114;-88
2023/08/30 05:34:10;;;;;;;13.65;9.85;;;;;;;25.91;100.00;93929.31;5055030;28;20116;-87
2023/08/30 05:36:36;;;;;;;10.07;9.32;;;;;;;25.93;100.00;93935.88;5028266;28;20031;-89
2023/08/30 05:39:03;;;;;;;9.35;8.43;;;;;;;26.63;93.82;93935.72;5025416;28;20037;-90
2023/08/30 05:41:29;;;;;;;8.47;7.67;;;;;;;26.80;92.38;93941.22;5048000;28;20028;-90
2023/08/30 05:43:55;;;;;;;9.77;8.32;;;;;;;27.09;89.65;93939.06;5042319;28;20032;-90
2023/08/30 05:46:20;;;;;;;8.65;7.95;;;;;;;27.72;86.27;93925.69;5060192;28;20561;-88
2023/08/30 05:48:46;;;;;;;8.65;7.85;;;;;;;28.50;79.60;93929.63;5062718;28;20028;-90
2023/08/30 05:51:11;;;;;;;10.05;8.50;;;;;;;29.30;74.82;93928.47;5063156;28;20028;-89
2023/08/30 05:53:36;;;;;;;10.23;7.93;;;;;;;29.36;73.24;93924.56;5057259;28;20044;-89
2023/08/30 05:56:02;;;;;;;8.77;7.57;;;;;;;29.43;72.94;93924.88;5038129;28;20028;-90
2023/08/30 05:58:29;;;;;;;8.82;7.95;;;;;;;29.83;70.96;93927.41;5063510;28;20631;-91
2023/08/30 06:00:55;;;;;;;12.43;8.13;;;;;;;29.20;71.71;93921.53;5044863;28;20502;-89
2023/08/30 06:03:20;;;;;;;9.00;8.10;;;;;;;29.63;70.42;93929.59;5063265;28;20049;-91
2023/08/30 06:05:48;;;;;;;9.40;8.52;;;;;;;28.29;77.01;93925.91;5062945;28;20059;-94
2023/08/30 06:08:14;;;;;;;12.63;9.75;;;;;;;27.98;81.13;93939.19;5044206;28;20482;-91
2023/08/30 06:10:39;;;;;;;11.50;9.65;;;;;;;28.23;78.88;93929.78;5025329;28;20040;-88
2023/08/30 06:13:05;;;;;;;9.75;8.85;;;;;;;29.41;73.25;93920.97;5060947;28;20540;-87
2023/08/30 06:15:30;;;;;;;11.25;9.63;;;;;;;29.61;72.83;93925.66;5061083;28;20036;-92
2023/08/30 06:17:55;;;;;;;10.07;8.98;;;;;;;28.19;80.27;93934.94;5062150;28;20028;-90
2023/08/30 06:20:21;;;;;;;10.45;9.23;;;;;;;26.45;89.70;93932.09;5054552;28;20343;-92
2023/08/30 06:22:46;;;;;;;10.32;9.43;;;;;;;26.62;87.46;93934.13;5054941;28;20029;-89
2023/08/30 06:25:12;;;;;;;9.52;8.52;;;;;;;27.03;88.50;93936.81;5057577;28;20056;-88
2023/08/30 06:27:57;;;;;;;11.30;10.13;;;;;;;25.43;96.09;93937.44;5041912;28;20572;-89
2023/08/30 06:30:23;;;;;;;9.80;8.80;;;;;;;26.30;93.82;93934.25;5058300;28;20021;-86
2023/08/30 06:32:49;;;;;;;11.98;8.57;;;;;;;26.54;90.42;93927.66;5039447;28;20051;-89
2023/08/30 06:35:14;;;;;;;8.20;7.40;;;;;;;27.71;83.67;93926.78;5050291;28;20529;-87
2023/08/30 06:37:40;;;;;;;8.55;7.40;;;;;;;29.64;73.65;93931.16;5061753;28;20024;-89
2023/08/30 06:40:06;;;;;;;10.40;7.03;;;;;;;30.57;66.95;93923.31;5054306;28;20025;-88
2023/08/30 06:42:31;;;;;;;7.25;6.65;;;;;;;30.87;62.62;93926.81;5059247;28;20055;-90
2023/08/30 06:44:57;;;;;;;7.28;6.70;;;;;;;31.33;60.11;93925.94;5054016;28;20039;-90
2023/08/30 06:47:22;;;;;;;8.10;7.40;;;;;;;32.11;56.59;93926.91;5058529;28;20479;-85
2023/08/30 06:49:48;;;;;;;8.32;6.75;;;;;;;33.01;54.75;93929.50;5054765;28;20020;-89
2023/08/30 06:52:13;;;;;;;7.70;6.65;;;;;;;32.67;53.84;93935.31;5062571;28;20543;-91
2023/08/30 06:54:38;;;;;;;8.90;6.35;;;;;;;32.61;54.68;93944.72;5050010;28;20078;-88
2023/08/30 06:57:05;;;;;;;10.40;6.57;;;;;;;33.46;52.47;93932.06;5058580;28;20509;-87
2023/08/30 06:59:31;;;;;;;6.72;6.13;;;;;;;33.14;53.34;93936.47;5055033;28;21439;-85
2023/08/30 07:01:56;;;;;;;11.13;6.20;;;;;;;34.29;49.73;93936.75;5049884;28;20052;-91
2023/08/30 07:04:22;;;;;;;10.35;6.47;;;;;;;34.20;48.37;93941.47;5057019;28;20072;-87
2023/08/30 07:06:47;;;;;;;10.85;6.18;;;;;;;33.71;47.92;93940.88;5051727;28;20053;-84
2023/08/30 07:09:12;;;;;;;8.50;5.95;;;;;;;34.27;46.95;93937.09;5054039;28;20116;-85
2023/08/30 07:11:38;;;;;;;7.22;5.53;;;;;;;34.97;45.32;93941.94;5058181;28;20028;-88
2023/08/30 07:14:04;;;;;;;8.27;5.93;;;;;;;33.46;47.74;93939.34;5052419;28;20508;-88
2023/08/30 07:16:31;;;;;;;6.32;5.72;;;;;;;35.19;45.57;93944.78;5061794;28;20528;-91
2023/08/30 07:18:57;;;;;;;5.55;5.03;;;;;;;35.69;42.77;93933.22;5059919;28;20060;-92
2023/08/30 07:21:23;;;;;;;5.57;5.07;;;;;;;35.34;41.59;93937.81;5048529;28;20472;-93
2023/08/30 07:23:48;;;;;;;5.73;5.07;;;;;;;36.04;43.29;93930.47;5042376;28;20017;-90
2023/08/30 07:26:13;;;;;;;7.13;5.20;;;;;;;35.75;43.12;93931.03;5060371;28;20040;-88
2023/08/30 07:28:39;;;;;;;7.78;4.88;;;;;;;35.72;42.49;93929.81;5040621;28;20063;-92
2023/08/30 07:31:05;;;;;;;7.32;5.82;;;;;;;35.02;41.49;93926.28;5055011;28;20425;-91
2023/08/30 07:33:31;;;;;;;6.72;5.97;;;;;;;34.18;45.61;93917.63;5065563;28;20067;-91
2023/08/30 07:35:56;;;;;;;6.95;5.75;;;;;;;30.32;57.10;93924.16;5057381;28;20506;-92
2023/08/30 07:38:22;;;;;;;7.53;5.75;;;;;;;29.96;59.84;93921.88;5048615;28;20021;-88
2023/08/30 07:40:47;;;;;;;12.77;5.82;;;;;;;29.79;60.27;93922.69;5063708;28;20055;-92
2023/08/30 07:43:13;;;;;;;9.18;5.75;;;;;;;30.33;58.63;93921.19;5033138;28;21060;-94
2023/08/30 07:45:38;;;;;;;8.85;5.03;;;;;;;30.10;58.77;93921.69;5058767;28;20097;-95
2023/08/30 07:48:04;;;;;;;8.70;5.60;;;;;;;30.16;59.14;93915.88;5062891;28;20100;-94
2023/08/30 07:50:29;;;;;;;9.15;4.85;;;;;;;30.30;60.04;93915.69;5051962;28;20021;-93
2023/08/30 07:52:54;;;;;;;5.90;5.00;;;;;;;29.89;56.49;93920.81;5067843;28;20040;-90
2023/08/30 07:55:20;;;;;;;6.90;4.80;;;;;;;30.20;59.34;93924.03;5067032;28;20042;-92
2023/08/30 07:57:46;;;;;;;8.07;5.22;;;;;;;29.99;56.33;93920.47;5064705;28;20480;-91
2023/08/30 08:00:12;;;;;;;7.40;5.65;;;;;;;29.71;57.66;93914.66;5067444;28;20021;-93
2023/08/30 08:02:37;;;;;;;7.22;5.28;;;;;;;29.98;55.94;93919.69;5063892;28;20114;-93
2023/08/30 08:05:03;;;;;;;6.43;5.30;;;;;;;30.27;57.29;93921.66;5067413;28;20028;-90
2023/08/30 08:07:28;;;;;;;7.05;5.43;;;;;;;29.39;57.31;93923.13;5061692;28;20063;-90
2023/08/30 08:09:55;;;;;;;5.93;5.28;;;;;;;29.15;58.93;93918.22;5061099;28;20115;-91
2023/08/30 08:12:21;;;;;;;9.32;5.90;;;;;;;29.18;60.50;93925.63;5055167;28;20032;-88
2023/08/30 08:14:46;;;;;;;6.68;5.70;;;;;;;29.66;60.08;93917.50;5050404;28;20033;-93
2023/08/30 08:17:12;;;;;;;7.55;5.05;;;;;;;30.08;59.43;93926.59;5066692;28;20089;-94
2023/08/30 08:19:39;;;;;;;5.75;5.13;;;;;;;30.07;59.44;93917.78;5062761;28;20032;-92
2023/08/30 08:22:05;;;;;;;8.45;5.68;;;;;;;30.05;58.52;93933.38;5058849;28;20090;-94
2023/08/30 08:24:31;;;;;;;5.85;5.22;;;;;;;29.75;60.01;93921.72;5061266;28;20021;-82
2023/08/30 08:26:56;;;;;;;9.05;5.82;;;;;;;28.62;61.87;93927.16;5050478;28;20078;-90
2023/08/30 08:29:21;;;;;;;9.32;5.80;;;;;;;28.49;63.61;93922.72;5059401;28;21013;-91
2023/08/30 08:31:47;;;;;;;7.53;5.75;;;;;;;28.81;61.59;93926.13;5054564;28;20043;-87
2023/08/30 08:34:13;;;;;;;9.20;6.13;;;;;;;29.55;63.08;93922.38;5064356;28;20033;-91
2023/08/30 08:36:39;;;;;;;8.68;5.93;;;;;;;29.98;62.27;93922.38;5062281;28;20031;-91
2023/08/30 08:39:05;;;;;;;7.38;6.57;;;;;;;29.97;60.65;93920.00;5064338;28;20552;-88
2023/08/30 08:41:38;;;;;;;9.35;6.07;;;;;;;29.92;61.93;93920.19;5061651;28;20054;-88
2023/08/30 08:44:05;;;;;;;10.57;6.15;;;;;;;30.05;61.99;93922.69;5062251;28;20064;-82
2023/08/30 08:46:31;;;;;;;6.90;5.88;;;;;;;30.27;62.28;93921.66;5061847;28;20621;-83
2023/08/30 08:48:57;;;;;;;7.57;6.30;;;;;;;29.65;61.14;93911.38;5062427;28;20021;-88
2023/08/30 08:51:24;;;;;;;6.75;5.90;;;;;;;29.94;62.58;93917.97;5062529;28;20035;-89
2023/08/30 08:53:49;;;;;;;6.72;6.07;;;;;;;30.12;59.76;93909.59;5064141;28;20028;-87
2023/08/30 08:56:15;;;;;;;9.15;6.35;;;;;;;30.31;60.84;93917.25;5049137;28;20470;-88
2023/08/30 08:58:42;;;;;;;7.55;5.90;;;;;;;29.99;59.67;93904.44;5044808;28;20060;-90
2023/08/30 09:01:07;;;;;;;9.15;5.78;;;;;;;30.17;56.84;93914.78;5063006;28;20036;-93
2023/08/30 09:03:34;;;;;;;6.60;5.72;;;;;;;30.79;56.81;93917.69;5043988;28;20099;-87
2023/08/30 09:06:01;;;;;;;6.38;5.80;;;;;;;30.91;56.97;93908.22;5062286;28;20110;-86
2023/08/30 09:08:26;;;;;;;6.32;5.72;;;;;;;30.45;57.36;93909.06;5061072;28;20024;-87
2023/08/30 09:10:53;;;;;;;9.93;6.05;;;;;;;30.38;57.23;93906.84;5036678;28;20043;-89
2023/08/30 09:13:20;;;;;;;6.50;5.03;;;;;;;30.69;54.49;93907.41;5042204;28;20039;-87
2023/08/30 09:15:46;;;;;;;5.80;5.30;;;;;;;30.29;54.77;93909.56;5057564;28;20461;-87
2023/08/30 09:18:18;;;;;;;7.40;5.75;;;;;;;30.67;54.28;93909.59;5046110;28;20107;-87
2023/08/30 09:20:44;;;;;;;6.00;5.32;;;;;;;31.23;54.20;93903.00;5049552;28;20043;-85
2023/08/30 09:23:20;;;;;;;8.30;5.30;;;;;;;30.93;52.21;93897.97;5060838;28;20021;-88
2023/08/30 09:25:46;;;;;;;10.55;5.60;;;;;;;30.99;52.43;93897.47;5067491;28;20036;-85
2023/08/30 09:28:12;;;;;;;7.50;5.55;;;;;;;30.71;52.40;93913.19;5044509;28;20024;-87
2023/08/30 09:30:39;;;;;;;6.38;5.88;;;;;;;30.87;52.93;93905.41;5043943;28;20044;-90
2023/08/30 09:33:05;;;;;;;9.85;6.38;;;;;;;31.11;55.18;93902.16;5038873;28;20037;-85
2023/08/30 09:35:30;;;;;;;7.30;5.88;;;;;;;31.34;54.04;93898.81;5042477;28;20407;-85
2023/08/30 09:37:56;;;;;;;6.15;5.45;;;;;;;31.09;53.21;93904.34;5047858;28;20028;-85
2023/08/30 09:40:22;;;;;;;12.15;5.47;;;;;;;31.13;54.81;93897.25;5060605;28;20482;-86
2023/08/30 09:42:48;;;;;;;7.57;6.30;;;;;;;31.22;54.40;93904.13;5047976;28;20032;-87
2023/08/30 09:45:25;;;;;;;10.88;6.10;;;;;;;31.07;54.28;93902.00;5039892;28;20028;-89
2023/08/30 09:47:52;;;;;;;6.50;5.65;;;;;;;31.35;53.87;93895.03;5035005;28;20502;-84
2023/08/30 09:50:20;;;;;;;7.63;5.38;;;;;;;31.46;52.13;93886.63;5054745;28;20036;-89
2023/08/30 09:52:49;;;;;;;;;;;;;;;31.02;53.76;93885.38;5060196;28;20033;-89
2023/08/30 09:55:15;;;;;;;7.43;5.28;;;;;;;31.28;53.37;93886.75;5036442;28;19920;-85
2023/08/30 09:57:42;;;;;;;9.70;5.40;;;;;;;31.36;53.14;93890.47;5044146;28;20028;-86
2023/08/30 10:00:08;;;;;;;5.72;5.22;;;;;;;31.56;52.22;93889.72;5058926;28;20147;-90
2023/08/30 10:02:34;;;;;;;7.90;4.78;;;;;;;31.26;51.68;93882.81;5051408;28;20055;-85
2023/08/30 10:05:05;;;;;;;11.45;5.20;;;;;;;30.80;51.57;93881.81;5060568;28;20021;-83
2023/08/30 10:07:30;;;;;;;8.50;5.15;;;;;;;31.20;51.84;93868.06;5039708;28;20570;-91
2023/08/30 10:10:07;;;;;;;5.97;4.75;;;;;;;30.95;51.99;93872.50;5052046;28;20029;-86
2023/08/30 10:12:32;;;;;;;9.38;5.00;;;;;;;31.32;52.50;93874.28;5051840;28;20530;-86
2023/08/30 10:14:58;;;;;;;7.53;4.97;;;;;;;31.14;52.23;93880.09;5056138;28;20036;-84
2023/08/30 10:17:27;;;;;;;7.22;5.10;;;;;;;30.98;52.56;93876.41;5054275;28;20024;-84
2023/08/30 10:19:53;;;;;;;6.95;5.03;;;;;;;30.80;52.25;93865.00;5058087;28;20035;-86
2023/08/30 10:22:19;;;;;;;7.68;4.82;;;;;;;31.14;51.64;93872.06;5051938;28;20032;-84
2023/08/30 10:24:50;;;;;;;4.90;4.10;;;;;;;31.23;52.14;93870.88;5025520;28;20021;-83
2023/08/30 10:27:16;;;;;;;6.03;5.13;;;;;;;31.15;50.98;93881.63;5059896;28;20032;-87
2023/08/30 10:29:43;;;;;;;7.13;5.05;;;;;;;30.87;51.29;93888.56;5060317;28;20029;-84
2023/08/30 10:32:12;;;;;;;5.40;4.53;;;;;;;31.02;51.04;93878.09;5065163;28;20037;-84
2023/08/30 10:34:37;;;;;;;;;;;;;;;31.13;51.96;93870.47;5053984;28;20040;-86
2023/08/30 10:37:07;;;;;;;6.97;5.60;;;;;;;31.23;51.31;93870.09;5063739;28;19924;-84
2023/08/30 10:39:38;;;;;;;6.13;5.53;;;;;;;30.37;52.52;93878.56;5041953;28;20131;-83
2023/08/30 10:42:11;;;;;;;6.68;5.22;;;;;;;29.68;53.62;93873.34;5053077;28;20139;-82
2023/08/30 10:44:57;;;;;;;7.05;5.10;;;;;;;29.67;54.15;93869.09;5058978;28;20498;-83
2023/08/30 10:47:30;;;;;;;6.05;5.53;;;;;;;30.25;54.24;93860.50;5060923;28;20452;-82
2023/08/30 10:49:57;;;;;;;10.30;5.63;;;;;;;30.67;54.02;93864.13;5062140;28;20452;-82
2023/08/30 10:52:23;;;;;;;5.70;5.18;;;;;;;30.65;52.21;93861.00;5057232;28;20039;-84
2023/08/30 10:54:50;;;;;;;7.60;5.53;;;;;;;30.30;51.38;93863.00;5061665;28;20025;-85
2023/08/30 10:57:19;;;;;;;7.32;5.63;;;;;;;30.32;53.58;93858.13;5045338;28;20035;-82
2023/08/30 11:00:04;;;;;;;6.28;5.47;;;;;;;30.20;54.76;93859.91;5051238;28;20078;-87
2023/08/30 11:02:30;;;;;;;9.90;5.38;;;;;;;30.43;54.58;93861.25;5051100;28;20083;-83
2023/08/30 11:04:57;;;;;;;8.70;5.88;;;;;;;29.94;55.58;93862.66;5048720;28;20071;-83
2023/08/30 11:07:25;;;;;;;8.48;5.55;;;;;;;29.93;57.65;93857.59;5046472;28;20094;-84
2023/08/30 11:09:52;;;;;;;9.63;5.57;;;;;;;29.97;57.03;93854.00;5042689;28;20032;-84
2023/08/30 11:12:18;;;;;;;9.02;6.07;;;;;;;29.77;57.37;93852.75;5056483;28;20067;-85
2023/08/30 11:14:43;;;;;;;8.38;5.65;;;;;;;30.24;58.32;93858.16;5040082;28;20112;-94
2023/08/30 11:17:12;;;;;;;8.75;6.28;;;;;;;30.23;56.65;93849.34;5060034;28;20112;-82
2023/08/30 11:19:37;;;;;;;9.05;6.10;;;;;;;30.27;56.51;93850.28;5052725;28;20067;-84